sensor_id;sensor_type;location;lat;lon;timestamp;P1;durP1;ratioP1;P2;durP2;ratioP2
79526;SDS011;68974;47.754;-3.364;2023-12-04T00:01:34;12.48;;;2.42;;
79526;SDS011;68974;47.754;-3.364;2023-12-04T00:04:00;21.92;;;3.47;;
79526;SDS011;68974;47.754;-3.364;2023-12-04T00:06:26;22.25;;;3.22;;
79526;SDS011;68974;47.754;-3.364;2023-12-04T00:08:52;23.27;;;4.07;;
79526;SDS011;68974;47.754;-3.364;2023-12-04T00:11:17;18.00;;;4.15;;
79526;SDS011;68974;47.754;-3.364;2023-12-04T00:13:43;19.02;;;3.15;;
79526;SDS011;68974;47.754;-3.364;2023-12-04T00:16:09;13.20;;;2.97;;
79526;SDS011;68974;47.754;-3.364;2023-12-04T00:18:34;8.43;;;2.70;;
79526;SDS011;68974;47.754;-3.364;2023-12-04T00:21:00;26.38;;;3.92;;
79526;SDS011;68974;47.754;-3.364;2023-12-04T00:23:25;14.73;;;2.70;;
79526;SDS011;68974;47.754;-3.364;2023-12-04T00:25:50;16.50;;;2.47;;
79526;SDS011;68974;47.754;-3.364;2023-12-04T00:28:16;19.55;;;3.75;;
79526;SDS011;68974;47.754;-3.364;2023-12-04T00:30:41;22.08;;;3.45;;
79526;SDS011;68974;47.754;-3.364;2023-12-04T00:33:07;11.57;;;2.28;;
79526;SDS011;68974;47.754;-3.364;2023-12-04T00:35:32;9.48;;;2.92;;
79526;SDS011;68974;47.754;-3.364;2023-12-04T00:37:58;20.38;;;3.05;;
79526;SDS011;68974;47.754;-3.364;2023-12-04T00:40:23;13.23;;;2.42;;
79526;SDS011;68974;47.754;-3.364;2023-12-04T00:42:49;13.15;;;2.45;;
79526;SDS011;68974;47.754;-3.364;2023-12-04T00:45:14;17.88;;;2.45;;
79526;SDS011;68974;47.754;-3.364;2023-12-04T00:47:40;8.73;;;2.70;;
79526;SDS011;68974;47.754;-3.364;2023-12-04T00:50:05;21.27;;;3.03;;
79526;SDS011;68974;47.754;-3.364;2023-12-04T00:52:31;14.25;;;2.65;;
79526;SDS011;68974;47.754;-3.364;2023-12-04T00:54:57;17.88;;;3.35;;
79526;SDS011;68974;47.754;-3.364;2023-12-04T00:57:22;10.38;;;2.58;;
79526;SDS011;68974;47.754;-3.364;2023-12-04T00:59:48;18.50;;;2.25;;
79526;SDS011;68974;47.754;-3.364;2023-12-04T01:02:13;20.42;;;3.05;;
79526;SDS011;68974;47.754;-3.364;2023-12-04T01:04:42;17.85;;;5.18;;
79526;SDS011;68974;47.754;-3.364;2023-12-04T01:07:07;20.42;;;3.38;;
79526;SDS011;68974;47.754;-3.364;2023-12-04T01:09:36;15.65;;;3.40;;
79526;SDS011;68974;47.754;-3.364;2023-12-04T01:12:02;20.23;;;5.03;;
79526;SDS011;68974;47.754;-3.364;2023-12-04T01:14:28;15.85;;;3.47;;
79526;SDS011;68974;47.754;-3.364;2023-12-04T01:16:55;16.20;;;2.90;;
79526;SDS011;68974;47.754;-3.364;2023-12-04T01:19:20;22.38;;;3.28;;
79526;SDS011;68974;47.754;-3.364;2023-12-04T01:21:46;14.63;;;3.33;;
79526;SDS011;68974;47.754;-3.364;2023-12-04T01:24:11;19.90;;;3.90;;
79526;SDS011;68974;47.754;-3.364;2023-12-04T01:26:37;14.55;;;3.58;;
79526;SDS011;68974;47.754;-3.364;2023-12-04T01:29:03;22.67;;;3.25;;
79526;SDS011;68974;47.754;-3.364;2023-12-04T01:31:28;16.65;;;3.10;;
79526;SDS011;68974;47.754;-3.364;2023-12-04T01:33:54;15.27;;;2.90;;
79526;SDS011;68974;47.754;-3.364;2023-12-04T01:36:19;15.35;;;3.70;;
79526;SDS011;68974;47.754;-3.364;2023-12-04T01:38:45;8.32;;;2.22;;
79526;SDS011;68974;47.754;-3.364;2023-12-04T01:41:10;18.70;;;2.67;;
79526;SDS011;68974;47.754;-3.364;2023-12-04T01:43:35;15.55;;;2.65;;
79526;SDS011;68974;47.754;-3.364;2023-12-04T01:46:01;15.18;;;2.33;;
79526;SDS011;68974;47.754;-3.364;2023-12-04T01:48:27;15.32;;;2.80;;
79526;SDS011;68974;47.754;-3.364;2023-12-04T01:50:54;15.85;;;4.55;;
79526;SDS011;68974;47.754;-3.364;2023-12-04T01:53:21;15.15;;;2.15;;
79526;SDS011;68974;47.754;-3.364;2023-12-04T01:55:47;22.10;;;2.55;;
79526;SDS011;68974;47.754;-3.364;2023-12-04T01:58:12;17.63;;;3.28;;
79526;SDS011;68974;47.754;-3.364;2023-12-04T02:00:38;12.30;;;2.30;;
79526;SDS011;68974;47.754;-3.364;2023-12-04T02:03:03;15.43;;;2.70;;
79526;SDS011;68974;47.754;-3.364;2023-12-04T02:05:29;12.18;;;2.20;;
79526;SDS011;68974;47.754;-3.364;2023-12-04T02:07:56;26.48;;;2.78;;
79526;SDS011;68974;47.754;-3.364;2023-12-04T02:10:22;24.17;;;3.33;;
79526;SDS011;68974;47.754;-3.364;2023-12-04T02:12:48;18.52;;;2.38;;
79526;SDS011;68974;47.754;-3.364;2023-12-04T02:15:15;15.65;;;3.05;;
79526;SDS011;68974;47.754;-3.364;2023-12-04T02:17:41;15.07;;;3.13;;
79526;SDS011;68974;47.754;-3.364;2023-12-04T02:20:13;18.80;;;3.03;;
79526;SDS011;68974;47.754;-3.364;2023-12-04T02:22:39;16.13;;;3.17;;
79526;SDS011;68974;47.754;-3.364;2023-12-04T02:25:05;11.77;;;2.65;;
79526;SDS011;68974;47.754;-3.364;2023-12-04T02:27:40;19.48;;;4.10;;
79526;SDS011;68974;47.754;-3.364;2023-12-04T02:30:12;18.85;;;3.60;;
79526;SDS011;68974;47.754;-3.364;2023-12-04T02:32:42;24.33;;;5.38;;
79526;SDS011;68974;47.754;-3.364;2023-12-04T02:35:10;19.92;;;3.40;;
79526;SDS011;68974;47.754;-3.364;2023-12-04T02:37:39;13.95;;;2.80;;
79526;SDS011;68974;47.754;-3.364;2023-12-04T02:40:05;13.70;;;2.63;;
79526;SDS011;68974;47.754;-3.364;2023-12-04T02:42:31;19.88;;;3.28;;
79526;SDS011;68974;47.754;-3.364;2023-12-04T02:44:57;23.70;;;3.45;;
79526;SDS011;68974;47.754;-3.364;2023-12-04T02:47:23;17.42;;;3.15;;
79526;SDS011;68974;47.754;-3.364;2023-12-04T02:49:48;27.58;;;4.65;;
79526;SDS011;68974;47.754;-3.364;2023-12-04T02:52:13;21.45;;;4.20;;
79526;SDS011;68974;47.754;-3.364;2023-12-04T02:54:39;21.20;;;4.32;;
79526;SDS011;68974;47.754;-3.364;2023-12-04T02:57:04;16.58;;;2.63;;
79526;SDS011;68974;47.754;-3.364;2023-12-04T02:59:30;27.30;;;6.93;;
79526;SDS011;68974;47.754;-3.364;2023-12-04T03:01:55;20.58;;;2.63;;
79526;SDS011;68974;47.754;-3.364;2023-12-04T03:04:21;15.20;;;2.95;;
79526;SDS011;68974;47.754;-3.364;2023-12-04T03:06:46;17.02;;;3.50;;
79526;SDS011;68974;47.754;-3.364;2023-12-04T03:09:12;18.85;;;3.13;;
79526;SDS011;68974;47.754;-3.364;2023-12-04T03:11:41;16.45;;;2.80;;
79526;SDS011;68974;47.754;-3.364;2023-12-04T03:14:07;24.30;;;2.95;;
79526;SDS011;68974;47.754;-3.364;2023-12-04T03:16:32;15.93;;;3.30;;
79526;SDS011;68974;47.754;-3.364;2023-12-04T03:18:58;34.67;;;3.95;;
79526;SDS011;68974;47.754;-3.364;2023-12-04T03:21:23;20.38;;;3.83;;
79526;SDS011;68974;47.754;-3.364;2023-12-04T03:23:49;27.13;;;4.40;;
79526;SDS011;68974;47.754;-3.364;2023-12-04T03:26:15;27.75;;;4.60;;
79526;SDS011;68974;47.754;-3.364;2023-12-04T03:28:40;42.50;;;4.97;;
79526;SDS011;68974;47.754;-3.364;2023-12-04T03:31:06;23.77;;;3.72;;
79526;SDS011;68974;47.754;-3.364;2023-12-04T03:33:31;19.73;;;3.58;;
79526;SDS011;68974;47.754;-3.364;2023-12-04T03:35:58;26.92;;;4.50;;
79526;SDS011;68974;47.754;-3.364;2023-12-04T03:38:24;23.58;;;4.00;;
79526;SDS011;68974;47.754;-3.364;2023-12-04T03:40:50;16.85;;;2.83;;
79526;SDS011;68974;47.754;-3.364;2023-12-04T03:43:16;20.42;;;3.15;;
79526;SDS011;68974;47.754;-3.364;2023-12-04T03:45:41;18.25;;;3.88;;
79526;SDS011;68974;47.754;-3.364;2023-12-04T03:48:06;21.55;;;3.53;;
79526;SDS011;68974;47.754;-3.364;2023-12-04T03:50:32;29.73;;;3.80;;
79526;SDS011;68974;47.754;-3.364;2023-12-04T03:52:57;30.20;;;3.75;;
79526;SDS011;68974;47.754;-3.364;2023-12-04T03:55:23;24.13;;;4.80;;
79526;SDS011;68974;47.754;-3.364;2023-12-04T03:57:48;23.00;;;3.08;;
79526;SDS011;68974;47.754;-3.364;2023-12-04T04:00:14;22.92;;;3.38;;
79526;SDS011;68974;47.754;-3.364;2023-12-04T04:02:40;19.30;;;4.50;;
79526;SDS011;68974;47.754;-3.364;2023-12-04T04:07:32;22.70;;;3.93;;
79526;SDS011;68974;47.754;-3.364;2023-12-04T04:09:58;19.58;;;3.13;;
79526;SDS011;68974;47.754;-3.364;2023-12-04T04:12:23;27.52;;;3.13;;
79526;SDS011;68974;47.754;-3.364;2023-12-04T04:14:49;22.40;;;3.38;;
79526;SDS011;68974;47.754;-3.364;2023-12-04T04:17:14;18.55;;;3.38;;
79526;SDS011;68974;47.754;-3.364;2023-12-04T04:19:40;26.98;;;3.63;;
79526;SDS011;68974;47.754;-3.364;2023-12-04T04:22:06;21.25;;;3.70;;
79526;SDS011;68974;47.754;-3.364;2023-12-04T04:24:31;37.63;;;5.28;;
79526;SDS011;68974;47.754;-3.364;2023-12-04T04:26:57;25.70;;;3.53;;
79526;SDS011;68974;47.754;-3.364;2023-12-04T04:29:22;29.27;;;6.30;;
79526;SDS011;68974;47.754;-3.364;2023-12-04T04:31:47;26.23;;;4.57;;
79526;SDS011;68974;47.754;-3.364;2023-12-04T04:34:13;22.83;;;4.35;;
79526;SDS011;68974;47.754;-3.364;2023-12-04T04:36:38;24.98;;;4.70;;
79526;SDS011;68974;47.754;-3.364;2023-12-04T04:39:04;27.42;;;4.45;;
79526;SDS011;68974;47.754;-3.364;2023-12-04T04:41:30;19.80;;;3.72;;
79526;SDS011;68974;47.754;-3.364;2023-12-04T04:43:55;12.80;;;1.98;;
79526;SDS011;68974;47.754;-3.364;2023-12-04T04:46:21;9.25;;;1.60;;
79526;SDS011;68974;47.754;-3.364;2023-12-04T04:48:46;6.63;;;1.25;;
79526;SDS011;68974;47.754;-3.364;2023-12-04T04:51:12;11.27;;;1.83;;
79526;SDS011;68974;47.754;-3.364;2023-12-04T04:53:38;13.02;;;1.77;;
79526;SDS011;68974;47.754;-3.364;2023-12-04T04:56:03;19.85;;;2.50;;
79526;SDS011;68974;47.754;-3.364;2023-12-04T04:58:29;22.67;;;2.72;;
79526;SDS011;68974;47.754;-3.364;2023-12-04T05:00:55;23.55;;;2.92;;
79526;SDS011;68974;47.754;-3.364;2023-12-04T05:03:20;21.20;;;3.25;;
79526;SDS011;68974;47.754;-3.364;2023-12-04T05:05:46;14.40;;;2.92;;
79526;SDS011;68974;47.754;-3.364;2023-12-04T05:08:11;21.20;;;2.80;;
79526;SDS011;68974;47.754;-3.364;2023-12-04T05:10:38;12.18;;;2.65;;
79526;SDS011;68974;47.754;-3.364;2023-12-04T05:13:04;14.18;;;2.00;;
79526;SDS011;68974;47.754;-3.364;2023-12-04T05:15:29;10.18;;;1.70;;
79526;SDS011;68974;47.754;-3.364;2023-12-04T05:17:55;12.23;;;1.80;;
79526;SDS011;68974;47.754;-3.364;2023-12-04T05:20:20;11.30;;;1.60;;
79526;SDS011;68974;47.754;-3.364;2023-12-04T05:22:45;25.65;;;3.13;;
79526;SDS011;68974;47.754;-3.364;2023-12-04T05:25:11;23.70;;;2.55;;
79526;SDS011;68974;47.754;-3.364;2023-12-04T05:27:36;17.27;;;2.70;;
79526;SDS011;68974;47.754;-3.364;2023-12-04T05:30:02;29.10;;;2.58;;
79526;SDS011;68974;47.754;-3.364;2023-12-04T05:32:28;13.90;;;2.17;;
79526;SDS011;68974;47.754;-3.364;2023-12-04T05:34:53;12.95;;;2.28;;
79526;SDS011;68974;47.754;-3.364;2023-12-04T05:37:19;13.48;;;2.30;;
79526;SDS011;68974;47.754;-3.364;2023-12-04T05:39:44;21.38;;;2.47;;
79526;SDS011;68974;47.754;-3.364;2023-12-04T05:42:09;19.25;;;2.42;;
79526;SDS011;68974;47.754;-3.364;2023-12-04T05:44:35;13.60;;;2.00;;
79526;SDS011;68974;47.754;-3.364;2023-12-04T05:47:00;19.27;;;2.35;;
79526;SDS011;68974;47.754;-3.364;2023-12-04T05:49:26;16.60;;;2.22;;
79526;SDS011;68974;47.754;-3.364;2023-12-04T05:51:51;10.23;;;2.15;;
79526;SDS011;68974;47.754;-3.364;2023-12-04T05:54:17;20.38;;;2.63;;
79526;SDS011;68974;47.754;-3.364;2023-12-04T05:56:42;19.60;;;3.13;;
79526;SDS011;68974;47.754;-3.364;2023-12-04T05:59:08;18.17;;;2.85;;
79526;SDS011;68974;47.754;-3.364;2023-12-04T06:01:33;18.80;;;3.13;;
79526;SDS011;68974;47.754;-3.364;2023-12-04T06:03:59;14.50;;;2.63;;
79526;SDS011;68974;47.754;-3.364;2023-12-04T06:06:24;13.50;;;2.25;;
79526;SDS011;68974;47.754;-3.364;2023-12-04T06:08:50;18.27;;;2.90;;
79526;SDS011;68974;47.754;-3.364;2023-12-04T06:11:15;19.05;;;2.15;;
79526;SDS011;68974;47.754;-3.364;2023-12-04T06:13:41;7.88;;;1.70;;
79526;SDS011;68974;47.754;-3.364;2023-12-04T06:16:06;5.28;;;1.73;;
79526;SDS011;68974;47.754;-3.364;2023-12-04T06:18:32;11.52;;;1.38;;
79526;SDS011;68974;47.754;-3.364;2023-12-04T06:20:58;9.85;;;1.83;;
79526;SDS011;68974;47.754;-3.364;2023-12-04T06:23:23;6.85;;;1.27;;
79526;SDS011;68974;47.754;-3.364;2023-12-04T06:25:52;8.68;;;1.20;;
79526;SDS011;68974;47.754;-3.364;2023-12-04T06:28:18;7.88;;;1.08;;
79526;SDS011;68974;47.754;-3.364;2023-12-04T06:30:43;5.00;;;1.10;;
79526;SDS011;68974;47.754;-3.364;2023-12-04T06:33:09;4.80;;;1.33;;
79526;SDS011;68974;47.754;-3.364;2023-12-04T06:35:39;6.68;;;1.60;;
79526;SDS011;68974;47.754;-3.364;2023-12-04T06:38:06;7.53;;;1.70;;
79526;SDS011;68974;47.754;-3.364;2023-12-04T06:40:33;5.90;;;1.15;;
79526;SDS011;68974;47.754;-3.364;2023-12-04T06:42:59;3.40;;;1.10;;
79526;SDS011;68974;47.754;-3.364;2023-12-04T06:45:24;5.10;;;1.30;;
79526;SDS011;68974;47.754;-3.364;2023-12-04T06:47:51;5.47;;;1.00;;
79526;SDS011;68974;47.754;-3.364;2023-12-04T06:50:18;4.13;;;1.17;;
79526;SDS011;68974;47.754;-3.364;2023-12-04T06:52:44;7.80;;;1.25;;
79526;SDS011;68974;47.754;-3.364;2023-12-04T06:55:09;13.23;;;2.25;;
79526;SDS011;68974;47.754;-3.364;2023-12-04T06:57:36;15.02;;;2.08;;
79526;SDS011;68974;47.754;-3.364;2023-12-04T07:00:01;10.95;;;2.03;;
79526;SDS011;68974;47.754;-3.364;2023-12-04T07:02:28;13.02;;;2.78;;
79526;SDS011;68974;47.754;-3.364;2023-12-04T07:04:53;14.23;;;2.38;;
79526;SDS011;68974;47.754;-3.364;2023-12-04T07:07:19;19.42;;;6.10;;
79526;SDS011;68974;47.754;-3.364;2023-12-04T07:09:44;13.07;;;3.67;;
79526;SDS011;68974;47.754;-3.364;2023-12-04T07:12:11;9.70;;;2.28;;
79526;SDS011;68974;47.754;-3.364;2023-12-04T07:14:38;9.85;;;1.48;;
79526;SDS011;68974;47.754;-3.364;2023-12-04T07:17:03;7.63;;;1.30;;
79526;SDS011;68974;47.754;-3.364;2023-12-04T07:19:28;10.07;;;1.70;;
79526;SDS011;68974;47.754;-3.364;2023-12-04T07:21:54;7.60;;;2.30;;
79526;SDS011;68974;47.754;-3.364;2023-12-04T07:24:20;14.60;;;3.50;;
79526;SDS011;68974;47.754;-3.364;2023-12-04T07:26:45;9.88;;;1.92;;
79526;SDS011;68974;47.754;-3.364;2023-12-04T07:29:10;12.55;;;2.03;;
79526;SDS011;68974;47.754;-3.364;2023-12-04T07:31:37;13.63;;;2.00;;
79526;SDS011;68974;47.754;-3.364;2023-12-04T07:34:02;8.23;;;1.30;;
79526;SDS011;68974;47.754;-3.364;2023-12-04T07:36:28;12.60;;;2.20;;
79526;SDS011;68974;47.754;-3.364;2023-12-04T07:38:54;13.05;;;2.20;;
79526;SDS011;68974;47.754;-3.364;2023-12-04T07:41:19;8.82;;;1.50;;
79526;SDS011;68974;47.754;-3.364;2023-12-04T07:43:45;8.88;;;2.00;;
79526;SDS011;68974;47.754;-3.364;2023-12-04T07:46:11;9.65;;;1.60;;
79526;SDS011;68974;47.754;-3.364;2023-12-04T07:48:36;15.45;;;1.88;;
79526;SDS011;68974;47.754;-3.364;2023-12-04T07:51:02;10.25;;;2.30;;
79526;SDS011;68974;47.754;-3.364;2023-12-04T07:53:28;12.25;;;2.38;;
79526;SDS011;68974;47.754;-3.364;2023-12-04T07:55:53;11.05;;;2.63;;
79526;SDS011;68974;47.754;-3.364;2023-12-04T07:58:19;12.55;;;2.33;;
79526;SDS011;68974;47.754;-3.364;2023-12-04T08:00:44;16.60;;;2.45;;
79526;SDS011;68974;47.754;-3.364;2023-12-04T08:03:10;15.88;;;2.33;;
79526;SDS011;68974;47.754;-3.364;2023-12-04T08:05:36;12.65;;;2.50;;
79526;SDS011;68974;47.754;-3.364;2023-12-04T08:08:02;14.65;;;2.58;;
79526;SDS011;68974;47.754;-3.364;2023-12-04T08:10:27;14.65;;;2.10;;
79526;SDS011;68974;47.754;-3.364;2023-12-04T08:12:53;21.92;;;2.70;;
79526;SDS011;68974;47.754;-3.364;2023-12-04T08:15:18;17.13;;;2.92;;
79526;SDS011;68974;47.754;-3.364;2023-12-04T08:17:44;20.08;;;2.80;;
79526;SDS011;68974;47.754;-3.364;2023-12-04T08:20:10;23.77;;;3.17;;
79526;SDS011;68974;47.754;-3.364;2023-12-04T08:22:39;22.02;;;4.70;;
79526;SDS011;68974;47.754;-3.364;2023-12-04T08:25:05;21.02;;;3.90;;
79526;SDS011;68974;47.754;-3.364;2023-12-04T08:27:34;22.13;;;4.22;;
79526;SDS011;68974;47.754;-3.364;2023-12-04T08:30:00;19.08;;;4.65;;
79526;SDS011;68974;47.754;-3.364;2023-12-04T08:32:26;23.05;;;5.63;;
79526;SDS011;68974;47.754;-3.364;2023-12-04T08:34:52;31.58;;;4.20;;
79526;SDS011;68974;47.754;-3.364;2023-12-04T08:37:18;15.05;;;3.22;;
79526;SDS011;68974;47.754;-3.364;2023-12-04T08:39:44;13.88;;;3.40;;
79526;SDS011;68974;47.754;-3.364;2023-12-04T08:42:09;9.70;;;2.40;;
79526;SDS011;68974;47.754;-3.364;2023-12-04T08:44:36;15.90;;;2.00;;
79526;SDS011;68974;47.754;-3.364;2023-12-04T08:47:02;11.60;;;2.67;;
79526;SDS011;68974;47.754;-3.364;2023-12-04T08:49:27;15.98;;;2.63;;
79526;SDS011;68974;47.754;-3.364;2023-12-04T08:51:53;20.95;;;2.45;;
79526;SDS011;68974;47.754;-3.364;2023-12-04T08:54:18;18.63;;;2.50;;
79526;SDS011;68974;47.754;-3.364;2023-12-04T08:56:44;12.23;;;2.10;;
79526;SDS011;68974;47.754;-3.364;2023-12-04T08:59:10;19.30;;;3.40;;
79526;SDS011;68974;47.754;-3.364;2023-12-04T09:01:35;15.27;;;2.63;;
79526;SDS011;68974;47.754;-3.364;2023-12-04T09:04:01;16.98;;;3.08;;
79526;SDS011;68974;47.754;-3.364;2023-12-04T09:06:27;25.52;;;3.60;;
79526;SDS011;68974;47.754;-3.364;2023-12-04T09:08:52;26.00;;;3.28;;
79526;SDS011;68974;47.754;-3.364;2023-12-04T09:11:18;14.57;;;2.45;;
79526;SDS011;68974;47.754;-3.364;2023-12-04T09:13:44;21.00;;;3.55;;
79526;SDS011;68974;47.754;-3.364;2023-12-04T09:16:10;17.05;;;2.88;;
79526;SDS011;68974;47.754;-3.364;2023-12-04T09:18:35;18.23;;;3.38;;
79526;SDS011;68974;47.754;-3.364;2023-12-04T09:21:00;20.20;;;3.15;;
79526;SDS011;68974;47.754;-3.364;2023-12-04T09:23:26;14.73;;;2.72;;
79526;SDS011;68974;47.754;-3.364;2023-12-04T09:25:51;17.35;;;4.13;;
79526;SDS011;68974;47.754;-3.364;2023-12-04T09:28:17;14.65;;;2.70;;
79526;SDS011;68974;47.754;-3.364;2023-12-04T09:30:42;14.07;;;3.03;;
79526;SDS011;68974;47.754;-3.364;2023-12-04T09:33:08;17.02;;;3.50;;
79526;SDS011;68974;47.754;-3.364;2023-12-04T09:35:33;26.17;;;4.38;;
79526;SDS011;68974;47.754;-3.364;2023-12-04T09:37:59;8.48;;;1.85;;
79526;SDS011;68974;47.754;-3.364;2023-12-04T09:40:24;9.23;;;2.33;;
79526;SDS011;68974;47.754;-3.364;2023-12-04T09:42:51;7.00;;;2.20;;
79526;SDS011;68974;47.754;-3.364;2023-12-04T09:45:18;8.65;;;1.75;;
79526;SDS011;68974;47.754;-3.364;2023-12-04T09:47:47;8.32;;;1.60;;
79526;SDS011;68974;47.754;-3.364;2023-12-04T09:50:12;21.80;;;2.45;;
79526;SDS011;68974;47.754;-3.364;2023-12-04T09:52:40;14.48;;;2.28;;
79526;SDS011;68974;47.754;-3.364;2023-12-04T09:55:06;9.23;;;2.40;;
79526;SDS011;68974;47.754;-3.364;2023-12-04T09:57:31;17.85;;;2.63;;
79526;SDS011;68974;47.754;-3.364;2023-12-04T09:59:57;14.55;;;2.25;;
79526;SDS011;68974;47.754;-3.364;2023-12-04T10:02:25;18.70;;;1.90;;
79526;SDS011;68974;47.754;-3.364;2023-12-04T10:04:51;12.32;;;2.67;;
79526;SDS011;68974;47.754;-3.364;2023-12-04T10:07:17;13.43;;;3.65;;
79526;SDS011;68974;47.754;-3.364;2023-12-04T10:09:42;16.40;;;3.00;;
79526;SDS011;68974;47.754;-3.364;2023-12-04T10:12:08;14.82;;;2.72;;
79526;SDS011;68974;47.754;-3.364;2023-12-04T10:14:34;10.43;;;2.03;;
79526;SDS011;68974;47.754;-3.364;2023-12-04T10:17:00;14.50;;;2.10;;
79526;SDS011;68974;47.754;-3.364;2023-12-04T10:19:40;15.57;;;2.15;;
79526;SDS011;68974;47.754;-3.364;2023-12-04T10:22:05;8.75;;;1.60;;
79526;SDS011;68974;47.754;-3.364;2023-12-04T10:24:39;4.63;;;1.42;;
79526;SDS011;68974;47.754;-3.364;2023-12-04T10:27:06;11.15;;;1.77;;
79526;SDS011;68974;47.754;-3.364;2023-12-04T10:29:46;9.48;;;1.48;;
79526;SDS011;68974;47.754;-3.364;2023-12-04T10:32:17;6.15;;;0.95;;
79526;SDS011;68974;47.754;-3.364;2023-12-04T10:34:47;2.50;;;0.80;;
79526;SDS011;68974;47.754;-3.364;2023-12-04T10:37:13;5.20;;;1.33;;
79526;SDS011;68974;47.754;-3.364;2023-12-04T10:39:48;5.63;;;1.05;;
79526;SDS011;68974;47.754;-3.364;2023-12-04T10:42:25;4.50;;;0.93;;
79526;SDS011;68974;47.754;-3.364;2023-12-04T10:44:52;5.30;;;1.40;;
79526;SDS011;68974;47.754;-3.364;2023-12-04T10:47:19;6.63;;;1.33;;
79526;SDS011;68974;47.754;-3.364;2023-12-04T10:49:47;4.22;;;0.82;;
79526;SDS011;68974;47.754;-3.364;2023-12-04T10:52:14;4.43;;;0.90;;
79526;SDS011;68974;47.754;-3.364;2023-12-04T10:54:40;3.25;;;0.73;;
79526;SDS011;68974;47.754;-3.364;2023-12-04T10:57:06;4.07;;;0.98;;
79526;SDS011;68974;47.754;-3.364;2023-12-04T10:59:36;3.72;;;1.45;;
79526;SDS011;68974;47.754;-3.364;2023-12-04T11:02:04;3.30;;;0.85;;
79526;SDS011;68974;47.754;-3.364;2023-12-04T11:04:33;1.20;;;0.77;;
79526;SDS011;68974;47.754;-3.364;2023-12-04T11:07:02;3.15;;;0.98;;
79526;SDS011;68974;47.754;-3.364;2023-12-04T11:09:31;4.75;;;0.93;;
79526;SDS011;68974;47.754;-3.364;2023-12-04T11:12:02;5.55;;;1.30;;
79526;SDS011;68974;47.754;-3.364;2023-12-04T11:14:34;5.72;;;1.38;;
79526;SDS011;68974;47.754;-3.364;2023-12-04T11:17:08;6.13;;;1.27;;
79526;SDS011;68974;47.754;-3.364;2023-12-04T11:22:25;6.78;;;1.00;;
79526;SDS011;68974;47.754;-3.364;2023-12-04T11:24:50;6.97;;;1.10;;
79526;SDS011;68974;47.754;-3.364;2023-12-04T11:27:16;5.55;;;1.77;;
79526;SDS011;68974;47.754;-3.364;2023-12-04T11:29:43;5.18;;;1.33;;
79526;SDS011;68974;47.754;-3.364;2023-12-04T11:32:14;5.93;;;1.10;;
79526;SDS011;68974;47.754;-3.364;2023-12-04T11:35:16;5.38;;;0.90;;
79526;SDS011;68974;47.754;-3.364;2023-12-04T11:37:39;5.25;;;1.08;;
79526;SDS011;68974;47.754;-3.364;2023-12-04T11:40:05;5.60;;;0.90;;
79526;SDS011;68974;47.754;-3.364;2023-12-04T11:42:32;3.80;;;0.80;;
79526;SDS011;68974;47.754;-3.364;2023-12-04T11:44:58;4.47;;;1.17;;
79526;SDS011;68974;47.754;-3.364;2023-12-04T11:47:23;4.70;;;0.60;;
79526;SDS011;68974;47.754;-3.364;2023-12-04T11:49:49;7.47;;;1.55;;
79526;SDS011;68974;47.754;-3.364;2023-12-04T11:52:15;7.13;;;1.10;;
79526;SDS011;68974;47.754;-3.364;2023-12-04T11:57:31;6.78;;;1.65;;
79526;SDS011;68974;47.754;-3.364;2023-12-04T12:02:33;3.88;;;0.70;;
79526;SDS011;68974;47.754;-3.364;2023-12-04T12:04:59;6.03;;;1.00;;
79526;SDS011;68974;47.754;-3.364;2023-12-04T12:07:24;2.22;;;0.77;;
79526;SDS011;68974;47.754;-3.364;2023-12-04T12:09:50;11.27;;;1.42;;
79526;SDS011;68974;47.754;-3.364;2023-12-04T12:12:15;3.35;;;1.00;;
79526;SDS011;68974;47.754;-3.364;2023-12-04T12:14:41;4.38;;;0.75;;
79526;SDS011;68974;47.754;-3.364;2023-12-04T12:17:06;3.20;;;1.10;;
79526;SDS011;68974;47.754;-3.364;2023-12-04T12:19:32;3.25;;;0.93;;
79526;SDS011;68974;47.754;-3.364;2023-12-04T12:21:57;3.17;;;0.63;;
79526;SDS011;68974;47.754;-3.364;2023-12-04T12:24:26;3.03;;;1.20;;
79526;SDS011;68974;47.754;-3.364;2023-12-04T12:26:51;3.42;;;1.00;;
79526;SDS011;68974;47.754;-3.364;2023-12-04T12:29:18;4.68;;;0.85;;
79526;SDS011;68974;47.754;-3.364;2023-12-04T12:31:44;7.07;;;1.08;;
79526;SDS011;68974;47.754;-3.364;2023-12-04T12:34:11;5.72;;;1.58;;
79526;SDS011;68974;47.754;-3.364;2023-12-04T12:36:36;4.95;;;1.10;;
79526;SDS011;68974;47.754;-3.364;2023-12-04T12:39:03;6.82;;;1.10;;
79526;SDS011;68974;47.754;-3.364;2023-12-04T12:41:29;5.50;;;0.75;;
79526;SDS011;68974;47.754;-3.364;2023-12-04T12:43:55;3.55;;;0.93;;
79526;SDS011;68974;47.754;-3.364;2023-12-04T12:46:21;6.90;;;1.30;;
79526;SDS011;68974;47.754;-3.364;2023-12-04T12:48:47;4.78;;;1.10;;
79526;SDS011;68974;47.754;-3.364;2023-12-04T12:51:13;4.00;;;0.93;;
79526;SDS011;68974;47.754;-3.364;2023-12-04T12:53:38;5.47;;;0.95;;
79526;SDS011;68974;47.754;-3.364;2023-12-04T12:56:04;2.97;;;0.73;;
79526;SDS011;68974;47.754;-3.364;2023-12-04T12:58:31;6.72;;;1.50;;
79526;SDS011;68974;47.754;-3.364;2023-12-04T13:00:59;4.85;;;1.08;;
79526;SDS011;68974;47.754;-3.364;2023-12-04T13:03:25;7.05;;;1.27;;
79526;SDS011;68974;47.754;-3.364;2023-12-04T13:05:50;4.70;;;1.92;;
79526;SDS011;68974;47.754;-3.364;2023-12-04T13:08:16;12.50;;;1.13;;
79526;SDS011;68974;47.754;-3.364;2023-12-04T13:10:41;5.35;;;1.10;;
79526;SDS011;68974;47.754;-3.364;2023-12-04T13:13:10;5.15;;;1.20;;
79526;SDS011;68974;47.754;-3.364;2023-12-04T13:15:39;3.95;;;1.10;;
79526;SDS011;68974;47.754;-3.364;2023-12-04T13:18:06;5.22;;;1.00;;
79526;SDS011;68974;47.754;-3.364;2023-12-04T13:20:32;4.75;;;0.77;;
79526;SDS011;68974;47.754;-3.364;2023-12-04T13:22:57;3.58;;;0.50;;
79526;SDS011;68974;47.754;-3.364;2023-12-04T13:25:23;2.92;;;0.70;;
79526;SDS011;68974;47.754;-3.364;2023-12-04T13:27:48;6.93;;;1.05;;
79526;SDS011;68974;47.754;-3.364;2023-12-04T13:30:14;5.78;;;1.20;;
79526;SDS011;68974;47.754;-3.364;2023-12-04T13:32:39;4.88;;;0.98;;
79526;SDS011;68974;47.754;-3.364;2023-12-04T13:35:05;4.55;;;0.80;;
79526;SDS011;68974;47.754;-3.364;2023-12-04T13:37:31;5.00;;;1.08;;
79526;SDS011;68974;47.754;-3.364;2023-12-04T13:39:58;3.00;;;1.08;;
79526;SDS011;68974;47.754;-3.364;2023-12-04T13:42:26;4.72;;;1.17;;
79526;SDS011;68974;47.754;-3.364;2023-12-04T13:45:10;5.53;;;1.00;;
79526;SDS011;68974;47.754;-3.364;2023-12-04T13:47:38;4.45;;;0.90;;
79526;SDS011;68974;47.754;-3.364;2023-12-04T13:50:07;5.15;;;1.10;;
79526;SDS011;68974;47.754;-3.364;2023-12-04T13:52:36;2.78;;;0.95;;
79526;SDS011;68974;47.754;-3.364;2023-12-04T13:57:39;4.72;;;1.20;;
79526;SDS011;68974;47.754;-3.364;2023-12-04T14:00:19;3.20;;;1.00;;
79526;SDS011;68974;47.754;-3.364;2023-12-04T14:02:45;4.78;;;1.20;;
79526;SDS011;68974;47.754;-3.364;2023-12-04T14:05:11;9.65;;;1.48;;
79526;SDS011;68974;47.754;-3.364;2023-12-04T14:07:40;10.00;;;1.33;;
79526;SDS011;68974;47.754;-3.364;2023-12-04T14:10:08;5.30;;;1.35;;
79526;SDS011;68974;47.754;-3.364;2023-12-04T14:12:34;8.93;;;2.13;;
79526;SDS011;68974;47.754;-3.364;2023-12-04T14:15:01;4.57;;;1.38;;
79526;SDS011;68974;47.754;-3.364;2023-12-04T14:17:28;4.22;;;1.25;;
79526;SDS011;68974;47.754;-3.364;2023-12-04T14:19:54;7.32;;;1.73;;
79526;SDS011;68974;47.754;-3.364;2023-12-04T14:22:19;6.55;;;1.27;;
79526;SDS011;68974;47.754;-3.364;2023-12-04T14:24:45;5.90;;;1.38;;
79526;SDS011;68974;47.754;-3.364;2023-12-04T14:27:10;7.90;;;2.17;;
79526;SDS011;68974;47.754;-3.364;2023-12-04T14:29:36;4.28;;;1.63;;
79526;SDS011;68974;47.754;-3.364;2023-12-04T14:32:01;0.95;;;0.80;;
79526;SDS011;68974;47.754;-3.364;2023-12-04T14:34:27;4.20;;;1.88;;